Latest Weather Observations for Creal Reef

IDQ60801

Issued at 1:02 pm EST Wednesday 19 September 2018 (issued every 10 minutes, with the page automatically refreshed every 10 minutes)

About weather observations | Map of weather stations | Latest weather observations for QLD | Other Formats
Station Details ID: 200736 Name: CREAL REEF Lat: -20.53 Lon: 150.38 Height: 1.7 m
Data from the previous 72 hours. | See also: Recent months for locations in Queensland
Date/Time
EST
Temp
°C
App
Temp
°C
Dew
Point
°C
Rel
Hum
%
Delta-T
°C
Wind Press
QNH
hPa
Press
MSL
hPa
Rain since
9am
mm
Dir  Spd
km/h
Gust
km/h
Spd
kts
Gust
kts
19/01:00pm 22.9 - - - - ESE 17 20 9 11 1015.3 - -
19/12:30pm 22.7 - - - - ESE 19 22 10 12 1015.6 - -
19/12:20pm 22.7 - - - - ESE 19 - 10 - - 1015.6 -
19/12:00pm 22.7 - - - - SE 19 20 10 11 1016.1 - -
19/11:30am 22.7 - - - - SE 20 24 11 13 1016.7 - -
19/11:20am 22.6 - - - - SE 19 - 10 - - 1016.8 -
19/11:00am 22.7 - - - - SE 20 24 11 13 1017.2 - -
19/10:30am 22.6 - - - - SE 20 26 11 14 1017.6 - -
19/10:20am 22.6 - - - - SE 20 - 11 - - 1017.6 -
19/10:00am 22.6 - - - - ESE 22 26 12 14 1017.8 - -
19/09:30am 22.9 - - - - E 22 26 12 14 1018.0 - -
19/09:20am 23.0 - - - - E 22 - 12 - - 1017.9 -
19/09:00am 23.1 - - - - ESE 26 30 14 16 1017.9 - -
19/08:30am 22.9 - - - - ESE 24 26 13 14 1017.9 - -
19/08:20am 23.0 - - - - ESE 22 - 12 - - 1017.8 -
19/08:00am 22.9 - - - - ESE 22 28 12 15 1017.9 - -
19/07:30am 22.8 - - - - E 24 28 13 15 1017.5 - -
19/07:20am 22.8 - - - - E 22 - 12 - - 1017.4 -
19/07:00am 22.7 - - - - E 24 30 13 16 1017.2 - -
19/06:30am 22.5 - - - - ESE 22 28 12 15 1016.9 - -
19/06:20am 22.4 - - - - ESE 24 - 13 - - 1016.7 -
19/06:00am 22.2 - - - - ESE 24 30 13 16 1016.6 - -
19/05:30am 22.1 - - - - ESE 24 28 13 15 1016.3 - -
19/05:20am 22.1 - - - - ESE 24 - 13 - - 1016.1 -
19/05:00am 22.0 - - - - ESE 26 30 14 16 1016.0 - -
19/04:30am 22.0 - - - - ESE 24 30 13 16 1016.1 - -
19/04:20am 21.9 - - - - ESE 24 - 13 - - 1015.9 -
19/04:00am 22.0 - - - - ESE 20 26 11 14 1015.8 - -
19/03:30am 22.1 - - - - ESE 22 28 12 15 1015.7 - -
19/03:20am 22.0 - - - - ESE 24 - 13 - - 1015.5 -
19/03:00am 22.1 - - - - ESE 24 30 13 16 1015.6 - -
19/02:30am 22.0 - - - - ESE 28 33 15 18 1015.7 - -
19/02:20am 22.0 - - - - ESE 30 - 16 - - 1015.7 -
19/02:00am 22.1 - - - - ESE 30 35 16 19 1015.9 - -
19/01:30am 22.0 - - - - E 32 37 17 20 1016.2 - -
19/01:20am 22.0 - - - - ESE 32 - 17 - - 1016.1 -
19/01:00am 22.0 - - - - ESE 33 39 18 21 1016.4 - -
19/12:30am 22.1 - - - - ESE 35 41 19 22 1016.7 - -
19/12:20am 22.1 - - - - E 35 - 19 - - 1016.5 -
19/12:00am 22.1 - - - - ESE 37 43 20 23 1016.7 - -
 
Date/Time
EST
Temp
°C
App
Temp
°C
Dew
Point
°C
Rel
Hum
%
Delta-T
°C
Wind Press
QNH
hPa
Press
MSL
hPa
Rain since
9am
mm
Dir  Spd
km/h
Gust
km/h
Spd
kts
Gust
kts
18/11:30pm 22.3 - - - - ESE 37 43 20 23 1016.9 - -
18/11:20pm 22.3 - - - - ESE 35 - 19 - - 1016.9 -
18/11:00pm 22.3 - - - - ESE 37 43 20 23 1016.9 - -
18/10:30pm 22.3 - - - - ESE 37 44 20 24 1016.9 - -
18/10:20pm 22.3 - - - - ESE 35 - 19 - - 1016.8 -
18/10:00pm 22.3 - - - - ESE 35 41 19 22 1017.2 - -
18/09:30pm 22.3 - - - - ESE 35 39 19 21 1017.3 - -
18/09:20pm 22.3 - - - - ESE 35 - 19 - - 1017.1 -
18/09:00pm 22.4 - - - - ESE 33 39 18 21 1017.1 - -
18/08:30pm 22.5 - - - - ESE 33 39 18 21 1017.0 - -
18/08:20pm 22.4 - - - - ESE 33 - 18 - - 1016.9 -
18/08:00pm 22.6 - - - - ESE 33 43 18 23 1016.8 - -
18/07:30pm 22.6 - - - - ESE 33 39 18 21 1016.6 - -
18/07:20pm 22.6 - - - - ESE 33 - 18 - - 1016.5 -
18/07:00pm 22.7 - - - - ESE 33 37 18 20 1016.3 - -
18/06:30pm 22.6 - - - - ESE 37 43 20 23 1016.0 - -
18/06:20pm 22.7 - - - - SE 37 - 20 - - 1015.9 -
18/06:00pm 22.7 - - - - SE 35 41 19 22 1016.1 - -
18/05:30pm 22.9 - - - - SE 32 35 17 19 1016.3 - -
18/05:20pm 23.0 - - - - SE 32 - 17 - - 1016.2 -
18/05:00pm 23.0 - - - - ESE 33 39 18 21 1016.1 - -
18/04:30pm 23.0 - - - - ESE 33 39 18 21 1015.9 - -
18/04:20pm 23.0 - - - - SE 35 - 19 - - 1015.8 -
18/04:00pm 23.0 - - - - SE 35 41 19 22 1015.9 - -
18/03:30pm 23.3 - - - - ESE 33 39 18 21 1015.8 - -
18/03:20pm 23.2 - - - - ESE 33 - 18 - - 1015.8 -
18/03:00pm 23.1 - - - - SE 37 44 20 24 1015.9 - -
18/02:30pm 23.2 - - - - ESE 35 39 19 21 1016.4 - -
18/02:20pm 23.1 - - - - ESE 33 - 18 - - 1016.4 -
18/02:00pm 23.2 - - - - ESE 33 39 18 21 1016.6 - -
18/01:30pm 23.2 - - - - ESE 33 39 18 21 1016.9 - -
18/01:20pm 23.3 - - - - ESE 35 - 19 - - 1017.0 -
18/01:00pm 23.3 - - - - ESE 35 41 19 22 1017.3 - -
18/12:30pm 23.4 - - - - ESE 37 43 20 23 1017.6 - -
18/12:20pm 23.4 - - - - ESE 35 - 19 - - 1017.6 -
18/12:00pm 23.4 - - - - ESE 37 41 20 22 1018.0 - -
18/11:30am 23.5 - - - - ESE 33 39 18 21 1018.6 - -
18/11:20am 23.5 - - - - ESE 35 - 19 - - 1018.6 -
18/11:00am 23.6 - - - - ESE 33 39 18 21 1019.0 - -
18/10:30am 23.5 - - - - ESE 35 41 19 22 1019.3 - -
18/10:20am 23.6 - - - - ESE 37 - 20 - - 1019.1 -
18/10:00am 23.5 - - - - ESE 35 41 19 22 1019.3 - -
18/09:30am 23.5 - - - - ESE 35 43 19 23 1019.3 - -
18/09:20am 23.4 - - - - ESE 37 - 20 - - 1019.2 -
18/09:00am 23.5 - - - - ESE 35 43 19 23 1019.2 - -
18/08:30am 23.6 - - - - ESE 35 41 19 22 1019.0 - -
18/08:20am 23.3 - - - - ESE 32 - 17 - - 1018.9 -
18/08:00am 22.9 - - - - ESE 33 39 18 21 1018.9 - -
18/07:30am 22.7 - - - - ESE 32 39 17 21 1018.5 - -
18/07:20am 22.4 - - - - ESE 35 - 19 - - 1018.3 -
18/07:00am 22.2 - - - - ESE 33 46 18 25 1018.2 - -
18/06:30am 22.7 - - - - ESE 32 35 17 19 1017.9 - -
18/06:20am 22.8 - - - - ESE 32 - 17 - - 1017.8 -
18/06:00am 22.7 - - - - ESE 30 35 16 19 1017.7 - -
18/05:30am 22.7 - - - - ESE 32 39 17 21 1017.3 - -
18/05:20am 22.6 - - - - ESE 35 - 19 - - 1017.1 -
18/05:00am 22.5 - - - - SE 32 37 17 20 1017.0 - -
18/04:30am 23.1 - - - - ESE 24 30 13 16 1016.7 - -
18/04:20am 23.0 - - - - ESE 24 - 13 - - 1016.5 -
18/04:00am 23.1 - - - - SE 24 26 13 14 1016.6 - -
18/03:30am 23.1 - - - - SE 22 28 12 15 1016.7 - -
18/03:20am 23.0 - - - - ESE 24 - 13 - - 1016.6 -
18/03:00am 23.1 - - - - ESE 22 26 12 14 1016.8 - -
18/02:30am 23.0 - - - - E 22 28 12 15 1017.0 - -
18/02:20am 23.1 - - - - E 24 - 13 - - 1016.8 -
18/02:00am 23.2 - - - - ESE 24 30 13 16 1016.9 - -
18/01:30am 23.3 - - - - ESE 28 33 15 18 1017.1 - -
18/01:20am 23.3 - - - - ESE 30 - 16 - - 1017.1 -
18/01:00am 23.3 - - - - E 30 33 16 18 1017.3 - -
18/12:30am 23.2 - - - - E 26 32 14 17 1017.5 - -
18/12:20am 23.0 - - - - ESE 26 - 14 - - 1017.5 -
18/12:00am 22.8 - - - - ESE 32 35 17 19 1017.7 - -
 
Date/Time
EST
Temp
°C
App
Temp
°C
Dew
Point
°C
Rel
Hum
%
Delta-T
°C
Wind Press
QNH
hPa
Press
MSL
hPa
Rain since
9am
mm
Dir  Spd
km/h
Gust
km/h
Spd
kts
Gust
kts
17/11:30pm 23.1 - - - - ESE 32 35 17 19 1017.9 - -
17/11:20pm 23.1 - - - - ESE 32 - 17 - - 1017.8 -
17/11:00pm 23.3 - - - - E 33 37 18 20 1017.9 - -
17/10:30pm 23.4 - - - - E 32 35 17 19 1017.9 - -
17/10:20pm 23.4 - - - - E 32 - 17 - - 1017.8 -
17/10:00pm 23.2 - - - - ESE 28 33 15 18 1018.0 - -
17/09:30pm 23.1 - - - - SE 30 33 16 18 1017.9 - -
17/09:20pm 23.1 - - - - ESE 32 - 17 - - 1017.8 -
17/09:00pm 23.1 - - - - ESE 32 35 17 19 1017.9 - -
17/08:30pm 23.0 - - - - SE 32 37 17 20 1017.7 - -
17/08:20pm 23.0 - - - - SE 32 - 17 - - 1017.6 -
17/08:00pm 23.2 - - - - SE 32 37 17 20 1017.4 - -
17/07:30pm 23.2 - - - - SE 32 37 17 20 1017.2 - -
17/07:20pm 23.0 - - - - SE 32 - 17 - - 1016.9 -
17/07:00pm 23.3 - - - - SE 32 35 17 19 1016.7 - -
17/06:30pm 23.2 - - - - SE 32 37 17 20 1016.3 - -
17/06:20pm 23.2 - - - - SE 32 - 17 - - 1016.1 -
17/06:00pm 23.2 - - - - SE 28 33 15 18 1015.9 - -
17/05:30pm 23.1 - - - - SE 28 33 15 18 1015.6 - -
17/05:20pm 23.3 - - - - SE 30 - 16 - - 1015.5 -
17/05:00pm 23.1 - - - - SE 28 32 15 17 1015.4 - -
17/04:30pm 23.2 - - - - SE 30 35 16 19 1015.1 - -
17/04:20pm 23.1 - - - - SE 30 - 16 - - 1015.0 -
17/04:00pm 23.1 - - - - SE 28 32 15 17 1015.0 - -
17/03:30pm 23.1 - - - - SE 26 30 14 16 1015.0 - -
17/03:20pm 23.1 - - - - SE 26 - 14 - - 1014.9 -
17/03:00pm 23.0 - - - - SSE 24 28 13 15 1014.9 - -
17/02:30pm 23.0 - - - - SSE 22 28 12 15 1014.9 - -
17/02:20pm 23.1 - - - - SSE 24 - 13 - - 1014.8 -
17/02:00pm 23.1 - - - - SSE 24 28 13 15 1015.0 - -
17/01:30pm 23.1 - - - - SSE 24 28 13 15 1015.1 - -
17/01:20pm 23.0 - - - - SSE 24 - 13 - - 1015.1 -
17/01:00pm 23.1 - - - - SSE 22 28 12 15 1015.3 - -
17/12:30pm 23.1 - - - - SSE 24 28 13 15 1015.6 - -
17/12:20pm 23.0 - - - - SSE 24 - 13 - - 1015.6 -
17/12:00pm 23.1 - - - - SSE 24 30 13 16 1016.0 - -
17/11:30am 23.1 - - - - SSE 24 28 13 15 1016.4 - -
17/11:20am 23.2 - - - - SSE 26 - 14 - - 1016.5 -
17/11:00am 23.2 - - - - SSE 24 30 13 16 1016.7 - -
17/10:30am 23.4 - - - - SSE 22 26 12 14 1017.1 - -
17/10:20am 23.2 - - - - SE 22 - 12 - - 1017.0 -
17/10:00am 23.1 - - - - SSE 22 26 12 14 1017.2 - -
17/09:30am 23.2 - - - - SSE 22 24 12 13 1017.1 - -
17/09:20am 23.1 - - - - SSE 20 - 11 - - 1016.9 -
17/09:00am 23.1 - - - - SSE 20 24 11 13 1016.9 - -
17/08:30am 23.0 - - - - SSE 20 24 11 13 1016.7 - -
17/08:20am 23.2 - - - - SSE 22 - 12 - - 1016.6 -
17/08:00am 23.0 - - - - SSE 20 26 11 14 1016.5 - -
17/07:30am 22.9 - - - - SSE 20 24 11 13 1016.1 - -
17/07:20am 23.0 - - - - SSE 20 - 11 - - 1015.9 -
17/07:00am 22.7 - - - - SSE 19 24 10 13 1015.8 - -
17/06:30am 22.7 - - - - SSE 19 24 10 13 1015.4 - -
17/06:20am 22.7 - - - - SSE 19 - 10 - - 1015.2 -
17/06:00am 22.5 - - - - SSE 19 22 10 12 1015.0 - -
17/05:30am 22.6 - - - - SSE 17 20 9 11 1014.5 - -
17/05:20am 22.6 - - - - S 20 - 11 - - 1014.4 -
17/05:00am 22.7 - - - - SSE 22 28 12 15 1014.4 - -
17/04:30am 22.7 - - - - SSE 19 20 10 11 1014.1 - -
17/04:20am 22.8 - - - - SSE 17 - 9 - - 1013.9 -
17/04:00am 22.8 - - - - SSE 15 17 8 9 1013.9 - -
17/03:30am 22.7 - - - - S 13 17 7 9 1013.7 - -
17/03:20am 22.7 - - - - S 15 - 8 - - 1013.5 -
17/03:00am 22.8 - - - - S 11 13 6 7 1013.6 - -
17/02:30am 22.8 - - - - SSE 9 11 5 6 1013.5 - -
17/02:20am 22.8 - - - - SSE 7 - 4 - - 1013.4 -
17/02:00am 22.9 - - - - SE 9 11 5 6 1013.6 - -
17/01:30am 22.9 - - - - ESE 6 9 3 5 1013.7 - -
17/01:20am 22.9 - - - - ENE 6 - 3 - - 1013.7 -
17/01:00am 23.0 - - - - NNE 24 28 13 15 1012.6 - -
17/12:30am 22.9 - - - - NNE 19 24 10 13 1012.9 - -
17/12:20am 22.9 - - - - NNE 20 - 11 - - 1013.2 -
17/12:00am 23.0 - - - - NNE 20 22 11 12 1013.1 - -
 
Date/Time
EST
Temp
°C
App
Temp
°C
Dew
Point
°C
Rel
Hum
%
Delta-T
°C
Wind Press
QNH
hPa
Press
MSL
hPa
Rain since
9am
mm
Dir  Spd
km/h
Gust
km/h
Spd
kts
Gust
kts
16/11:30pm 22.9 - - - - NNE 19 20 10 11 1013.3 - -
16/11:20pm 23.0 - - - - NNE 19 - 10 - - 1013.2 -
16/11:00pm 22.9 - - - - NNE 20 24 11 13 1013.3 - -
16/10:30pm 22.8 - - - - NNE 19 24 10 13 1013.5 - -
16/10:20pm 22.8 - - - - NNE 22 - 12 - - 1013.2 -
16/10:00pm 22.8 - - - - NE 20 24 11 13 1013.4 - -
16/09:30pm 22.8 - - - - NE 24 28 13 15 1012.9 - -
16/09:20pm 22.6 - - - - NE 24 - 13 - - 1012.9 -
16/09:00pm 22.7 - - - - NE 20 26 11 14 1013.1 - -
16/08:30pm 22.6 - - - - NE 19 22 10 12 1013.2 - -
16/08:20pm 22.6 - - - - ENE 19 - 10 - - 1013.0 -
16/08:00pm 22.6 - - - - NE 19 22 10 12 1013.1 - -
16/07:30pm 22.6 - - - - NE 20 24 11 13 1012.7 - -
16/07:20pm 22.6 - - - - NE 20 - 11 - - 1012.5 -
16/07:00pm 22.5 - - - - NE 17 20 9 11 1012.4 - -
16/06:30pm 22.5 - - - - NE 17 19 9 10 1012.1 - -
16/06:20pm 22.5 - - - - NE 17 - 9 - - 1011.9 -
16/06:00pm 22.5 - - - - ENE 15 17 8 9 1012.1 - -
16/05:30pm 22.6 - - - - NE 11 13 6 7 1011.9 - -
16/05:20pm 22.6 - - - - NE 9 - 5 - - 1011.8 -
16/05:00pm 22.7 - - - - CALM 0 7 0 4 1011.9 - -
16/04:30pm 23.1 - - - - CALM 0 0 0 0 1011.8 - -
16/04:20pm 23.1 - - - - CALM 0 - 0 - - 1011.7 -
16/04:00pm 24.2 - - - - CALM 0 0 0 0 1011.8 - -
16/03:30pm 24.3 - - - - CALM 0 0 0 0 1011.7 - -
16/03:20pm 24.5 - - - - CALM 0 - 0 - - 1011.7 -
16/03:00pm 24.1 - - - - CALM 0 0 0 0 1012.0 - -
16/02:30pm 24.4 - - - - WSW 6 9 3 5 1012.1 - -
16/02:20pm 24.2 - - - - W 7 - 4 - - 1012.1 -
16/02:00pm 24.1 - - - - WSW 7 11 4 6 1012.4 - -
16/01:30pm 23.9 - - - - WSW 9 13 5 7 1012.8 - -
16/01:20pm 24.1 - - - - WSW 7 - 4 - - 1012.7 -

Other Formats:

Comma delimited format used in spreadsheet applications
http://www.bom.gov.au/fwo/IDQ60801/IDQ60801.94371.axf

JavaScript Object Notation format (JSON) in row-major order
http://www.bom.gov.au/fwo/IDQ60801/IDQ60801.94371.json